sensor_id;sensor_type;location;lat;lon;timestamp;temperature;humidity
8882;DHT22;4477;48.736;9.176;2023-04-01T00:00:29;6.10;99.90
8882;DHT22;4477;48.736;9.176;2023-04-01T00:02:57;6.20;99.90
8882;DHT22;4477;48.736;9.176;2023-04-01T00:05:25;6.20;99.90
8882;DHT22;4477;48.736;9.176;2023-04-01T00:07:52;6.20;99.90
8882;DHT22;4477;48.736;9.176;2023-04-01T00:10:19;6.20;99.90
8882;DHT22;4477;48.736;9.176;2023-04-01T00:12:46;6.30;99.90
8882;DHT22;4477;48.736;9.176;2023-04-01T00:15:13;6.40;99.90
8882;DHT22;4477;48.736;9.176;2023-04-01T00:17:41;6.40;99.90
8882;DHT22;4477;48.736;9.176;2023-04-01T00:20:10;6.40;99.90
8882;DHT22;4477;48.736;9.176;2023-04-01T00:22:37;6.40;99.90
8882;DHT22;4477;48.736;9.176;2023-04-01T00:25:05;6.40;99.90
8882;DHT22;4477;48.736;9.176;2023-04-01T00:27:32;6.40;99.90
8882;DHT22;4477;48.736;9.176;2023-04-01T00:29:59;6.30;99.90
8882;DHT22;4477;48.736;9.176;2023-04-01T00:32:26;6.30;99.90
8882;DHT22;4477;48.736;9.176;2023-04-01T00:34:53;6.30;99.90
8882;DHT22;4477;48.736;9.176;2023-04-01T00:37:21;6.30;99.90
8882;DHT22;4477;48.736;9.176;2023-04-01T00:39:48;6.40;99.90
8882;DHT22;4477;48.736;9.176;2023-04-01T00:42:15;6.40;99.90
8882;DHT22;4477;48.736;9.176;2023-04-01T00:44:42;6.40;99.90
8882;DHT22;4477;48.736;9.176;2023-04-01T00:47:09;6.50;99.90
8882;DHT22;4477;48.736;9.176;2023-04-01T00:49:39;6.60;99.90
8882;DHT22;4477;48.736;9.176;2023-04-01T00:52:08;6.60;99.90
8882;DHT22;4477;48.736;9.176;2023-04-01T00:54:41;6.60;99.90
8882;DHT22;4477;48.736;9.176;2023-04-01T00:57:13;6.60;99.90
8882;DHT22;4477;48.736;9.176;2023-04-01T00:59:43;6.60;99.90
8882;DHT22;4477;48.736;9.176;2023-04-01T01:02:13;6.60;99.90
8882;DHT22;4477;48.736;9.176;2023-04-01T01:04:40;6.60;99.90
8882;DHT22;4477;48.736;9.176;2023-04-01T01:07:15;6.60;99.90
8882;DHT22;4477;48.736;9.176;2023-04-01T01:09:52;6.60;99.90
8882;DHT22;4477;48.736;9.176;2023-04-01T01:12:26;6.50;99.90
8882;DHT22;4477;48.736;9.176;2023-04-01T01:15:05;6.50;99.90
8882;DHT22;4477;48.736;9.176;2023-04-01T01:17:42;6.50;99.90
8882;DHT22;4477;48.736;9.176;2023-04-01T01:20:44;6.50;99.90
8882;DHT22;4477;48.736;9.176;2023-04-01T01:23:52;6.50;99.90
8882;DHT22;4477;48.736;9.176;2023-04-01T01:26:43;6.50;99.90
8882;DHT22;4477;48.736;9.176;2023-04-01T01:29:30;6.50;99.90
8882;DHT22;4477;48.736;9.176;2023-04-01T01:32:04;6.60;99.90
8882;DHT22;4477;48.736;9.176;2023-04-01T01:34:37;6.60;99.90
8882;DHT22;4477;48.736;9.176;2023-04-01T01:37:10;6.60;99.90
8882;DHT22;4477;48.736;9.176;2023-04-01T01:39:40;6.50;99.90
8882;DHT22;4477;48.736;9.176;2023-04-01T01:42:11;6.50;99.90
8882;DHT22;4477;48.736;9.176;2023-04-01T01:44:41;6.50;99.90
8882;DHT22;4477;48.736;9.176;2023-04-01T01:47:10;6.50;99.90
8882;DHT22;4477;48.736;9.176;2023-04-01T01:49:39;6.50;99.90
8882;DHT22;4477;48.736;9.176;2023-04-01T01:52:08;6.50;99.90
8882;DHT22;4477;48.736;9.176;2023-04-01T01:54:35;6.40;99.90
8882;DHT22;4477;48.736;9.176;2023-04-01T01:57:05;6.40;99.90
8882;DHT22;4477;48.736;9.176;2023-04-01T01:59:33;6.40;99.90
8882;DHT22;4477;48.736;9.176;2023-04-01T02:02:02;6.30;99.90
8882;DHT22;4477;48.736;9.176;2023-04-01T02:04:34;6.30;99.90
8882;DHT22;4477;48.736;9.176;2023-04-01T02:07:03;6.30;99.90
8882;DHT22;4477;48.736;9.176;2023-04-01T02:09:33;6.30;99.90
8882;DHT22;4477;48.736;9.176;2023-04-01T02:12:02;6.30;99.90
8882;DHT22;4477;48.736;9.176;2023-04-01T02:14:39;6.30;99.90
8882;DHT22;4477;48.736;9.176;2023-04-01T02:17:08;6.30;99.90
8882;DHT22;4477;48.736;9.176;2023-04-01T02:19:38;6.30;99.90
8882;DHT22;4477;48.736;9.176;2023-04-01T02:22:09;6.30;99.90
8882;DHT22;4477;48.736;9.176;2023-04-01T02:24:40;6.20;99.90
8882;DHT22;4477;48.736;9.176;2023-04-01T02:27:09;6.10;99.90
8882;DHT22;4477;48.736;9.176;2023-04-01T02:29:36;6.10;99.90
8882;DHT22;4477;48.736;9.176;2023-04-01T02:32:04;6.10;99.90
8882;DHT22;4477;48.736;9.176;2023-04-01T02:34:32;6.10;99.90
8882;DHT22;4477;48.736;9.176;2023-04-01T02:37:00;6.10;99.90
8882;DHT22;4477;48.736;9.176;2023-04-01T02:39:27;6.00;99.90
8882;DHT22;4477;48.736;9.176;2023-04-01T02:41:55;6.00;99.90
8882;DHT22;4477;48.736;9.176;2023-04-01T02:44:22;6.00;99.90
8882;DHT22;4477;48.736;9.176;2023-04-01T02:46:49;5.90;99.90
8882;DHT22;4477;48.736;9.176;2023-04-01T02:49:15;5.90;99.90
8882;DHT22;4477;48.736;9.176;2023-04-01T02:51:42;5.90;99.90
8882;DHT22;4477;48.736;9.176;2023-04-01T02:54:09;5.90;99.90
8882;DHT22;4477;48.736;9.176;2023-04-01T02:56:36;5.90;99.90
8882;DHT22;4477;48.736;9.176;2023-04-01T02:59:04;5.90;99.90
8882;DHT22;4477;48.736;9.176;2023-04-01T03:01:31;5.90;99.90
8882;DHT22;4477;48.736;9.176;2023-04-01T03:03:58;5.90;99.90
8882;DHT22;4477;48.736;9.176;2023-04-01T03:06:24;5.80;99.90
8882;DHT22;4477;48.736;9.176;2023-04-01T03:21:14;5.80;99.90
8882;DHT22;4477;48.736;9.176;2023-04-01T03:23:41;5.90;99.90
8882;DHT22;4477;48.736;9.176;2023-04-01T03:26:08;6.00;99.90
8882;DHT22;4477;48.736;9.176;2023-04-01T03:28:35;5.80;99.90
8882;DHT22;4477;48.736;9.176;2023-04-01T03:31:02;5.80;99.90
8882;DHT22;4477;48.736;9.176;2023-04-01T03:33:30;5.80;99.90
8882;DHT22;4477;48.736;9.176;2023-04-01T03:35:57;5.80;99.90
8882;DHT22;4477;48.736;9.176;2023-04-01T03:38:25;5.90;99.90
8882;DHT22;4477;48.736;9.176;2023-04-01T03:40:51;5.90;99.90
8882;DHT22;4477;48.736;9.176;2023-04-01T03:43:18;6.00;99.90
8882;DHT22;4477;48.736;9.176;2023-04-01T03:45:46;6.00;99.90
8882;DHT22;4477;48.736;9.176;2023-04-01T03:48:14;6.00;99.90
8882;DHT22;4477;48.736;9.176;2023-04-01T03:50:43;5.90;99.90
8882;DHT22;4477;48.736;9.176;2023-04-01T03:53:10;5.90;99.90
8882;DHT22;4477;48.736;9.176;2023-04-01T03:55:38;6.00;99.90
8882;DHT22;4477;48.736;9.176;2023-04-01T03:58:05;5.90;99.90
8882;DHT22;4477;48.736;9.176;2023-04-01T04:00:33;5.90;99.90
8882;DHT22;4477;48.736;9.176;2023-04-01T04:03:00;5.80;99.90
8882;DHT22;4477;48.736;9.176;2023-04-01T04:05:27;5.70;99.90
8882;DHT22;4477;48.736;9.176;2023-04-01T04:10:22;5.70;99.90
8882;DHT22;4477;48.736;9.176;2023-04-01T05:56:08;5.50;99.90
8882;DHT22;4477;48.736;9.176;2023-04-01T05:58:35;6.60;99.90
8882;DHT22;4477;48.736;9.176;2023-04-01T06:01:03;6.60;99.90
8882;DHT22;4477;48.736;9.176;2023-04-01T06:03:30;6.70;99.90
8882;DHT22;4477;48.736;9.176;2023-04-01T06:05:57;6.70;99.90
8882;DHT22;4477;48.736;9.176;2023-04-01T06:08:25;6.80;99.90
8882;DHT22;4477;48.736;9.176;2023-04-01T06:11:01;6.90;99.90
8882;DHT22;4477;48.736;9.176;2023-04-01T06:13:40;6.90;99.90
8882;DHT22;4477;48.736;9.176;2023-04-01T06:16:14;7.10;99.90
8882;DHT22;4477;48.736;9.176;2023-04-01T06:18:49;7.30;99.90
8882;DHT22;4477;48.736;9.176;2023-04-01T06:24:35;7.40;99.90
8882;DHT22;4477;48.736;9.176;2023-04-01T06:27:10;7.40;99.90
8882;DHT22;4477;48.736;9.176;2023-04-01T06:29:50;7.40;99.90
8882;DHT22;4477;48.736;9.176;2023-04-01T06:32:45;7.30;99.90
8882;DHT22;4477;48.736;9.176;2023-04-01T06:35:31;7.40;99.90
8882;DHT22;4477;48.736;9.176;2023-04-01T06:41:26;7.40;99.90
8882;DHT22;4477;48.736;9.176;2023-04-01T06:44:00;7.50;99.90
8882;DHT22;4477;48.736;9.176;2023-04-01T06:46:42;7.40;99.90
8882;DHT22;4477;48.736;9.176;2023-04-01T06:49:30;7.40;99.90
8882;DHT22;4477;48.736;9.176;2023-04-01T06:52:02;7.30;99.90
8882;DHT22;4477;48.736;9.176;2023-04-01T06:54:34;7.30;99.90
8882;DHT22;4477;48.736;9.176;2023-04-01T06:57:12;7.30;99.90
8882;DHT22;4477;48.736;9.176;2023-04-01T06:59:44;7.30;99.90
8882;DHT22;4477;48.736;9.176;2023-04-01T07:02:19;7.40;99.90
8882;DHT22;4477;48.736;9.176;2023-04-01T07:04:51;7.50;99.90
8882;DHT22;4477;48.736;9.176;2023-04-01T07:07:24;7.70;99.90
8882;DHT22;4477;48.736;9.176;2023-04-01T07:09:56;7.80;99.90
8882;DHT22;4477;48.736;9.176;2023-04-01T07:12:35;7.70;99.90
8882;DHT22;4477;48.736;9.176;2023-04-01T07:15:13;7.80;99.90
8882;DHT22;4477;48.736;9.176;2023-04-01T07:17:43;7.80;99.90
8882;DHT22;4477;48.736;9.176;2023-04-01T07:20:13;7.90;99.90
8882;DHT22;4477;48.736;9.176;2023-04-01T07:22:44;7.70;99.90
8882;DHT22;4477;48.736;9.176;2023-04-01T07:25:13;7.60;99.90
8882;DHT22;4477;48.736;9.176;2023-04-01T07:27:43;7.60;99.90
8882;DHT22;4477;48.736;9.176;2023-04-01T07:30:15;7.60;99.90
8882;DHT22;4477;48.736;9.176;2023-04-01T07:32:46;7.60;99.90
8882;DHT22;4477;48.736;9.176;2023-04-01T07:35:23;7.60;99.90
8882;DHT22;4477;48.736;9.176;2023-04-01T07:38:06;7.60;99.90
8882;DHT22;4477;48.736;9.176;2023-04-01T07:40:40;7.60;99.90
8882;DHT22;4477;48.736;9.176;2023-04-01T07:43:39;7.60;99.90
8882;DHT22;4477;48.736;9.176;2023-04-01T07:46:14;7.60;99.90
8882;DHT22;4477;48.736;9.176;2023-04-01T07:48:48;7.70;99.90
8882;DHT22;4477;48.736;9.176;2023-04-01T07:51:22;7.80;99.90
8882;DHT22;4477;48.736;9.176;2023-04-01T07:54:00;7.90;99.90
8882;DHT22;4477;48.736;9.176;2023-04-01T07:56:32;8.10;99.90
8882;DHT22;4477;48.736;9.176;2023-04-01T07:59:06;7.90;99.90
8882;DHT22;4477;48.736;9.176;2023-04-01T08:01:42;8.00;99.90
8882;DHT22;4477;48.736;9.176;2023-04-01T08:04:29;8.00;99.90
8882;DHT22;4477;48.736;9.176;2023-04-01T08:07:07;8.00;99.90
8882;DHT22;4477;48.736;9.176;2023-04-01T08:09:43;8.10;99.90
8882;DHT22;4477;48.736;9.176;2023-04-01T08:12:20;8.10;99.90
8882;DHT22;4477;48.736;9.176;2023-04-01T08:14:56;8.30;99.90
8882;DHT22;4477;48.736;9.176;2023-04-01T08:17:31;8.30;99.90
8882;DHT22;4477;48.736;9.176;2023-04-01T08:20:10;8.20;99.90
8882;DHT22;4477;48.736;9.176;2023-04-01T08:22:42;8.10;99.90
8882;DHT22;4477;48.736;9.176;2023-04-01T08:25:16;7.90;99.90
8882;DHT22;4477;48.736;9.176;2023-04-01T08:27:45;7.90;99.90
8882;DHT22;4477;48.736;9.176;2023-04-01T08:30:20;8.00;99.90
8882;DHT22;4477;48.736;9.176;2023-04-01T08:32:50;8.10;99.90
8882;DHT22;4477;48.736;9.176;2023-04-01T08:35:24;8.00;99.90
8882;DHT22;4477;48.736;9.176;2023-04-01T08:37:53;8.10;99.90
8882;DHT22;4477;48.736;9.176;2023-04-01T08:43:25;7.90;99.90
8882;DHT22;4477;48.736;9.176;2023-04-01T08:46:10;7.70;99.90
8882;DHT22;4477;48.736;9.176;2023-04-01T08:48:49;7.40;99.90
8882;DHT22;4477;48.736;9.176;2023-04-01T08:54:42;7.30;99.90
8882;DHT22;4477;48.736;9.176;2023-04-01T08:57:15;7.10;99.90
8882;DHT22;4477;48.736;9.176;2023-04-01T08:59:59;7.00;99.90
8882;DHT22;4477;48.736;9.176;2023-04-01T09:02:53;7.00;99.90
8882;DHT22;4477;48.736;9.176;2023-04-01T09:05:48;6.90;99.90
8882;DHT22;4477;48.736;9.176;2023-04-01T09:08:31;7.00;99.90
8882;DHT22;4477;48.736;9.176;2023-04-01T09:11:07;7.10;99.90
8882;DHT22;4477;48.736;9.176;2023-04-01T09:19:31;7.50;99.90
8882;DHT22;4477;48.736;9.176;2023-04-01T09:22:13;7.70;99.90
8882;DHT22;4477;48.736;9.176;2023-04-01T09:25:05;7.90;99.90
8882;DHT22;4477;48.736;9.176;2023-04-01T09:27:43;8.00;99.90
8882;DHT22;4477;48.736;9.176;2023-04-01T09:30:32;8.10;99.90
8882;DHT22;4477;48.736;9.176;2023-04-01T09:36:17;8.50;99.90
8882;DHT22;4477;48.736;9.176;2023-04-01T09:38:56;9.10;99.90
8882;DHT22;4477;48.736;9.176;2023-04-01T09:41:29;8.80;99.90
8882;DHT22;4477;48.736;9.176;2023-04-01T09:44:04;8.30;99.90
8882;DHT22;4477;48.736;9.176;2023-04-01T09:46:48;8.10;99.90
8882;DHT22;4477;48.736;9.176;2023-04-01T09:49:32;7.90;99.90
8882;DHT22;4477;48.736;9.176;2023-04-01T09:52:14;7.90;99.90
8882;DHT22;4477;48.736;9.176;2023-04-01T09:55:02;7.90;99.90
8882;DHT22;4477;48.736;9.176;2023-04-01T10:01:07;7.90;99.90
8882;DHT22;4477;48.736;9.176;2023-04-01T10:04:00;7.90;99.90
8882;DHT22;4477;48.736;9.176;2023-04-01T10:07:07;7.90;99.90
8882;DHT22;4477;48.736;9.176;2023-04-01T10:10:18;7.80;99.90
8882;DHT22;4477;48.736;9.176;2023-04-01T10:13:18;7.90;99.90
8882;DHT22;4477;48.736;9.176;2023-04-01T10:16:03;8.00;99.90
8882;DHT22;4477;48.736;9.176;2023-04-01T10:19:03;8.10;99.90
8882;DHT22;4477;48.736;9.176;2023-04-01T10:22:12;8.20;99.90
8882;DHT22;4477;48.736;9.176;2023-04-01T10:25:24;8.50;99.90
8882;DHT22;4477;48.736;9.176;2023-04-01T10:28:36;8.70;99.90
8882;DHT22;4477;48.736;9.176;2023-04-01T10:37:47;9.30;99.90
8882;DHT22;4477;48.736;9.176;2023-04-01T10:40:38;9.60;99.90
8882;DHT22;4477;48.736;9.176;2023-04-01T10:46:37;10.10;98.20
8882;DHT22;4477;48.736;9.176;2023-04-01T10:49:41;10.50;96.80
8882;DHT22;4477;48.736;9.176;2023-04-01T10:52:37;10.80;97.00
8882;DHT22;4477;48.736;9.176;2023-04-01T10:58:48;10.70;94.90
8882;DHT22;4477;48.736;9.176;2023-04-01T11:01:39;10.60;93.90
8882;DHT22;4477;48.736;9.176;2023-04-01T11:04:53;10.60;94.20
8882;DHT22;4477;48.736;9.176;2023-04-01T11:08:15;10.00;94.40
8882;DHT22;4477;48.736;9.176;2023-04-01T11:14:31;9.50;96.40
8882;DHT22;4477;48.736;9.176;2023-04-01T11:17:40;9.90;96.20
8882;DHT22;4477;48.736;9.176;2023-04-01T11:23:35;10.10;94.00
8882;DHT22;4477;48.736;9.176;2023-04-01T11:26:09;10.30;94.60
8882;DHT22;4477;48.736;9.176;2023-04-01T11:29:22;10.50;93.70
8882;DHT22;4477;48.736;9.176;2023-04-01T11:32:01;10.80;93.50
8882;DHT22;4477;48.736;9.176;2023-04-01T11:34:39;10.70;92.40
8882;DHT22;4477;48.736;9.176;2023-04-01T11:37:15;10.40;93.00
8882;DHT22;4477;48.736;9.176;2023-04-01T11:39:55;10.30;93.50
8882;DHT22;4477;48.736;9.176;2023-04-01T11:42:28;10.10;93.20
8882;DHT22;4477;48.736;9.176;2023-04-01T11:45:07;10.40;92.50
8882;DHT22;4477;48.736;9.176;2023-04-01T11:51:02;10.10;92.50
8882;DHT22;4477;48.736;9.176;2023-04-01T11:53:39;10.00;93.10
8882;DHT22;4477;48.736;9.176;2023-04-01T12:02:05;9.70;94.30
8882;DHT22;4477;48.736;9.176;2023-04-01T12:04:50;9.40;94.20
8882;DHT22;4477;48.736;9.176;2023-04-01T12:07:34;9.20;94.40
8882;DHT22;4477;48.736;9.176;2023-04-01T12:10:12;9.20;94.70
8882;DHT22;4477;48.736;9.176;2023-04-01T12:12:52;9.20;95.30
8882;DHT22;4477;48.736;9.176;2023-04-01T12:15:32;9.30;95.20
8882;DHT22;4477;48.736;9.176;2023-04-01T12:18:09;9.60;94.90
8882;DHT22;4477;48.736;9.176;2023-04-01T12:20:45;9.80;95.10
8882;DHT22;4477;48.736;9.176;2023-04-01T12:23:25;9.70;94.90
8882;DHT22;4477;48.736;9.176;2023-04-01T12:26:10;9.30;96.10
8882;DHT22;4477;48.736;9.176;2023-04-01T12:28:53;9.10;96.20
8882;DHT22;4477;48.736;9.176;2023-04-01T12:31:31;9.10;97.00
8882;DHT22;4477;48.736;9.176;2023-04-01T12:34:21;9.50;95.80
8882;DHT22;4477;48.736;9.176;2023-04-01T12:37:02;10.20;95.40
8882;DHT22;4477;48.736;9.176;2023-04-01T12:39:44;10.60;93.20
8882;DHT22;4477;48.736;9.176;2023-04-01T12:42:23;10.80;92.00
8882;DHT22;4477;48.736;9.176;2023-04-01T12:45:05;10.90;92.10
8882;DHT22;4477;48.736;9.176;2023-04-01T12:51:03;11.40;90.70
8882;DHT22;4477;48.736;9.176;2023-04-01T12:53:49;11.30;90.30
8882;DHT22;4477;48.736;9.176;2023-04-01T12:56:26;11.10;90.90
8882;DHT22;4477;48.736;9.176;2023-04-01T12:59:16;10.70;91.60
8882;DHT22;4477;48.736;9.176;2023-04-01T13:02:00;10.80;92.00
8882;DHT22;4477;48.736;9.176;2023-04-01T13:04:44;10.80;90.80
8882;DHT22;4477;48.736;9.176;2023-04-01T13:10:13;10.90;90.80
8882;DHT22;4477;48.736;9.176;2023-04-01T13:13:03;10.90;90.80
8882;DHT22;4477;48.736;9.176;2023-04-01T13:15:41;10.90;91.60
8882;DHT22;4477;48.736;9.176;2023-04-01T13:18:24;10.80;92.00
8882;DHT22;4477;48.736;9.176;2023-04-01T13:21:02;10.40;92.30
8882;DHT22;4477;48.736;9.176;2023-04-01T13:23:45;10.40;92.30
8882;DHT22;4477;48.736;9.176;2023-04-01T13:26:20;10.20;92.70
8882;DHT22;4477;48.736;9.176;2023-04-01T13:28:53;10.00;92.40
8882;DHT22;4477;48.736;9.176;2023-04-01T13:31:38;10.10;93.00
8882;DHT22;4477;48.736;9.176;2023-04-01T13:34:29;10.10;92.70
8882;DHT22;4477;48.736;9.176;2023-04-01T13:37:09;10.10;92.40
8882;DHT22;4477;48.736;9.176;2023-04-01T13:39:53;10.10;92.20
8882;DHT22;4477;48.736;9.176;2023-04-01T13:42:25;10.10;92.50
8882;DHT22;4477;48.736;9.176;2023-04-01T13:44:56;10.10;91.80
8882;DHT22;4477;48.736;9.176;2023-04-01T13:47:54;10.10;91.90
8882;DHT22;4477;48.736;9.176;2023-04-01T13:50:38;10.00;91.90
8882;DHT22;4477;48.736;9.176;2023-04-01T13:56:16;10.20;92.20
8882;DHT22;4477;48.736;9.176;2023-04-01T13:59:03;10.40;91.60
8882;DHT22;4477;48.736;9.176;2023-04-01T14:01:39;10.70;92.00
8882;DHT22;4477;48.736;9.176;2023-04-01T14:04:25;10.80;91.30
8882;DHT22;4477;48.736;9.176;2023-04-01T14:07:04;10.80;90.80
8882;DHT22;4477;48.736;9.176;2023-04-01T14:09:51;10.80;91.40
8882;DHT22;4477;48.736;9.176;2023-04-01T14:12:30;10.80;90.90
8882;DHT22;4477;48.736;9.176;2023-04-01T14:15:39;10.50;91.90
8882;DHT22;4477;48.736;9.176;2023-04-01T14:21:23;10.10;92.50
8882;DHT22;4477;48.736;9.176;2023-04-01T14:24:12;9.90;93.10
8882;DHT22;4477;48.736;9.176;2023-04-01T14:27:06;9.80;94.50
8882;DHT22;4477;48.736;9.176;2023-04-01T14:29:40;9.80;93.90
8882;DHT22;4477;48.736;9.176;2023-04-01T14:32:18;9.70;94.20
8882;DHT22;4477;48.736;9.176;2023-04-01T14:35:09;9.80;94.80
8882;DHT22;4477;48.736;9.176;2023-04-01T14:40:45;9.70;95.30
8882;DHT22;4477;48.736;9.176;2023-04-01T14:43:32;9.70;94.10
8882;DHT22;4477;48.736;9.176;2023-04-01T14:46:13;9.60;93.90
8882;DHT22;4477;48.736;9.176;2023-04-01T14:48:51;9.60;93.90
8882;DHT22;4477;48.736;9.176;2023-04-01T14:51:23;9.70;93.40
8882;DHT22;4477;48.736;9.176;2023-04-01T14:54:00;9.80;93.50
8882;DHT22;4477;48.736;9.176;2023-04-01T14:56:38;10.10;93.30
8882;DHT22;4477;48.736;9.176;2023-04-01T14:59:10;10.20;93.00
8882;DHT22;4477;48.736;9.176;2023-04-01T15:01:46;10.00;92.80
8882;DHT22;4477;48.736;9.176;2023-04-01T15:07:27;9.60;93.20
8882;DHT22;4477;48.736;9.176;2023-04-01T15:10:04;9.60;93.50
8882;DHT22;4477;48.736;9.176;2023-04-01T15:12:42;9.80;94.00
8882;DHT22;4477;48.736;9.176;2023-04-01T15:15:23;9.70;93.80
8882;DHT22;4477;48.736;9.176;2023-04-01T15:18:02;9.70;93.80
8882;DHT22;4477;48.736;9.176;2023-04-01T15:20:48;9.80;94.00
8882;DHT22;4477;48.736;9.176;2023-04-01T15:23:28;10.00;93.50
8882;DHT22;4477;48.736;9.176;2023-04-01T15:26:18;9.80;93.90
8882;DHT22;4477;48.736;9.176;2023-04-01T15:29:00;9.80;94.30
8882;DHT22;4477;48.736;9.176;2023-04-01T15:31:33;9.70;94.50
8882;DHT22;4477;48.736;9.176;2023-04-01T15:34:20;9.80;94.50
8882;DHT22;4477;48.736;9.176;2023-04-01T15:36:53;10.00;93.20
8882;DHT22;4477;48.736;9.176;2023-04-01T15:39:27;10.00;92.40
8882;DHT22;4477;48.736;9.176;2023-04-01T15:42:17;9.80;93.70
8882;DHT22;4477;48.736;9.176;2023-04-01T15:47:45;9.80;93.70
8882;DHT22;4477;48.736;9.176;2023-04-01T15:53:22;9.30;94.90
8882;DHT22;4477;48.736;9.176;2023-04-01T15:55:56;9.30;95.00
8882;DHT22;4477;48.736;9.176;2023-04-01T15:58:39;9.30;94.90
8882;DHT22;4477;48.736;9.176;2023-04-01T16:01:18;9.30;95.10
8882;DHT22;4477;48.736;9.176;2023-04-01T16:03:54;9.30;95.80
8882;DHT22;4477;48.736;9.176;2023-04-01T16:06:48;9.30;96.10
8882;DHT22;4477;48.736;9.176;2023-04-01T16:09:36;9.30;96.20
8882;DHT22;4477;48.736;9.176;2023-04-01T16:12:15;9.30;95.70
8882;DHT22;4477;48.736;9.176;2023-04-01T16:14:54;9.10;95.90
8882;DHT22;4477;48.736;9.176;2023-04-01T16:17:47;9.00;96.00
8882;DHT22;4477;48.736;9.176;2023-04-01T16:20:19;9.00;97.30
8882;DHT22;4477;48.736;9.176;2023-04-01T16:22:53;8.90;97.00
8882;DHT22;4477;48.736;9.176;2023-04-01T16:25:29;8.80;98.50
8882;DHT22;4477;48.736;9.176;2023-04-01T16:28:07;8.80;98.40
8882;DHT22;4477;48.736;9.176;2023-04-01T16:30:45;8.80;97.80
8882;DHT22;4477;48.736;9.176;2023-04-01T16:33:21;8.80;98.60
8882;DHT22;4477;48.736;9.176;2023-04-01T16:35:55;8.70;98.20
8882;DHT22;4477;48.736;9.176;2023-04-01T16:38:26;8.70;98.70
8882;DHT22;4477;48.736;9.176;2023-04-01T16:41:10;8.70;98.70
8882;DHT22;4477;48.736;9.176;2023-04-01T16:43:42;8.70;98.90
8882;DHT22;4477;48.736;9.176;2023-04-01T16:46:26;8.80;99.30
8882;DHT22;4477;48.736;9.176;2023-04-01T16:49:08;8.80;99.10
8882;DHT22;4477;48.736;9.176;2023-04-01T16:51:46;8.80;99.00
8882;DHT22;4477;48.736;9.176;2023-04-01T16:54:18;8.90;98.50
8882;DHT22;4477;48.736;9.176;2023-04-01T16:56:55;8.90;98.60
8882;DHT22;4477;48.736;9.176;2023-04-01T16:59:25;8.90;98.30
8882;DHT22;4477;48.736;9.176;2023-04-01T17:01:57;8.90;98.50
8882;DHT22;4477;48.736;9.176;2023-04-01T17:04:34;8.90;98.90
8882;DHT22;4477;48.736;9.176;2023-04-01T17:07:15;8.90;98.50
8882;DHT22;4477;48.736;9.176;2023-04-01T17:09:59;8.90;98.50
8882;DHT22;4477;48.736;9.176;2023-04-01T17:12:34;8.90;97.60
8882;DHT22;4477;48.736;9.176;2023-04-01T17:15:13;8.80;98.10
8882;DHT22;4477;48.736;9.176;2023-04-01T17:17:49;8.80;98.10
8882;DHT22;4477;48.736;9.176;2023-04-01T17:20:40;8.70;98.50
8882;DHT22;4477;48.736;9.176;2023-04-01T17:23:14;8.70;98.90
8882;DHT22;4477;48.736;9.176;2023-04-01T17:25:52;8.60;99.60
8882;DHT22;4477;48.736;9.176;2023-04-01T17:28:36;8.50;99.00
8882;DHT22;4477;48.736;9.176;2023-04-01T17:31:11;8.50;99.80
8882;DHT22;4477;48.736;9.176;2023-04-01T17:33:57;8.40;99.90
8882;DHT22;4477;48.736;9.176;2023-04-01T17:36:40;8.40;99.90
8882;DHT22;4477;48.736;9.176;2023-04-01T17:39:31;8.30;99.90
8882;DHT22;4477;48.736;9.176;2023-04-01T17:42:06;8.30;99.90
8882;DHT22;4477;48.736;9.176;2023-04-01T17:44:40;8.30;99.90
8882;DHT22;4477;48.736;9.176;2023-04-01T17:47:29;8.30;99.90
8882;DHT22;4477;48.736;9.176;2023-04-01T17:50:07;8.30;99.90
8882;DHT22;4477;48.736;9.176;2023-04-01T17:52:43;8.30;99.90
8882;DHT22;4477;48.736;9.176;2023-04-01T17:55:48;8.30;99.90
8882;DHT22;4477;48.736;9.176;2023-04-01T17:58:18;8.20;99.90
8882;DHT22;4477;48.736;9.176;2023-04-01T18:01:07;8.20;99.90
8882;DHT22;4477;48.736;9.176;2023-04-01T18:04:01;8.20;99.90
8882;DHT22;4477;48.736;9.176;2023-04-01T18:06:34;8.20;99.90
8882;DHT22;4477;48.736;9.176;2023-04-01T18:09:13;8.10;99.90
8882;DHT22;4477;48.736;9.176;2023-04-01T18:11:53;8.10;99.90
8882;DHT22;4477;48.736;9.176;2023-04-01T18:14:36;8.00;99.90
8882;DHT22;4477;48.736;9.176;2023-04-01T18:17:18;7.90;99.90
8882;DHT22;4477;48.736;9.176;2023-04-01T18:20:02;7.70;99.90
8882;DHT22;4477;48.736;9.176;2023-04-01T18:22:40;7.50;99.90
8882;DHT22;4477;48.736;9.176;2023-04-01T18:25:19;7.50;99.90
8882;DHT22;4477;48.736;9.176;2023-04-01T18:27:48;7.40;99.90
8882;DHT22;4477;48.736;9.176;2023-04-01T18:30:20;7.40;99.90
8882;DHT22;4477;48.736;9.176;2023-04-01T18:32:50;7.40;99.90
8882;DHT22;4477;48.736;9.176;2023-04-01T18:35:24;7.30;99.90
8882;DHT22;4477;48.736;9.176;2023-04-01T18:37:55;7.20;99.90
